createdAt,value
2023-01-10T18:01:25.475Z,16.67
2023-01-10T18:03:52.864Z,21.27
2023-01-10T18:06:25.082Z,25.37
2023-01-10T18:08:52.883Z,20.60
2023-01-10T18:11:19.589Z,14.50
2023-01-10T18:13:46.318Z,14.33
2023-01-10T18:16:12.907Z,30.63
2023-01-10T18:18:39.573Z,17.83
2023-01-10T18:21:16.548Z,17.17
2023-01-10T18:23:43.290Z,17.20
2023-01-10T18:26:12.654Z,14.63
2023-01-10T18:28:42.712Z,10.47
2023-01-10T18:31:19.716Z,12.97
2023-01-10T18:33:47.673Z,9.67
2023-01-10T18:36:19.806Z,8.37
2023-01-10T18:38:47.710Z,8.87
2023-01-10T18:41:15.701Z,4.83
2023-01-10T18:43:42.401Z,5.10
2023-01-10T18:46:15.216Z,5.30
2023-01-10T18:48:41.811Z,12.67
2023-01-10T18:51:09.972Z,10.97
2023-01-10T18:53:38.191Z,5.10
2023-01-10T18:56:05.896Z,8.83
2023-01-10T18:58:35.855Z,8.77
2023-01-10T19:01:17.952Z,6.00
2023-01-10T19:03:46.652Z,5.70
2023-01-10T19:06:16.414Z,7.40
2023-01-10T19:08:44.674Z,5.30
2023-01-10T19:11:16.403Z,4.77
2023-01-10T19:13:45.121Z,3.00
2023-01-10T19:16:17.166Z,5.73
2023-01-10T19:18:47.876Z,4.63
2023-01-10T19:21:16.196Z,7.17
2023-01-10T19:23:48.504Z,5.70
2023-01-10T19:26:15.591Z,9.17
2023-01-10T19:28:43.929Z,4.50
2023-01-10T19:31:18.618Z,4.40
2023-01-10T19:33:47.482Z,3.43
2023-01-10T19:36:16.783Z,5.47
2023-01-10T19:38:44.196Z,6.03
2023-01-10T19:41:11.439Z,5.43
2023-01-10T19:43:38.060Z,4.40
2023-01-10T19:46:11.791Z,1.77
2023-01-10T19:48:39.095Z,5.33
2023-01-10T19:51:06.793Z,3.30
2023-01-10T19:53:37.846Z,4.40
2023-01-10T19:56:09.514Z,5.57
2023-01-10T19:58:37.788Z,3.73
2023-01-10T20:01:13.549Z,4.07
2023-01-10T20:03:42.153Z,2.93
2023-01-10T20:06:14.236Z,2.90
2023-01-10T20:08:41.518Z,3.40
2023-01-10T20:11:08.779Z,3.60
2023-01-10T20:13:41.966Z,3.23
2023-01-10T20:16:08.983Z,2.20
2023-01-10T20:18:35.945Z,4.00
2023-01-10T20:21:07.607Z,4.30
2023-01-10T20:23:35.401Z,4.37
2023-01-10T20:26:06.570Z,2.47
2023-01-10T20:28:34.455Z,4.23
2023-01-10T20:31:01.309Z,2.80
2023-01-10T20:33:28.707Z,3.90
2023-01-10T20:36:04.150Z,2.73
2023-01-10T20:38:32.930Z,2.63
2023-01-10T20:41:11.908Z,2.90
2023-01-10T20:43:39.212Z,4.90
2023-01-10T20:46:08.541Z,2.93
2023-01-10T20:48:35.263Z,3.80
2023-01-10T20:51:02.340Z,3.40
2023-01-10T20:53:29.039Z,4.70
2023-01-10T20:56:00.057Z,6.33
2023-01-10T20:58:26.985Z,3.17
2023-01-10T21:00:54.081Z,2.13
2023-01-10T21:03:23.587Z,3.30
2023-01-10T21:05:54.451Z,2.00
2023-01-10T21:08:22.313Z,1.53
2023-01-10T21:10:50.244Z,3.70
2023-01-10T21:13:17.584Z,2.23
2023-01-10T21:15:46.441Z,2.70
2023-01-10T21:18:15.569Z,1.53
2023-01-10T21:20:43.723Z,2.33
2023-01-10T21:23:10.607Z,3.13
2023-01-10T21:25:37.376Z,2.30
2023-01-10T21:28:09.397Z,2.83
2023-01-10T21:30:37.444Z,3.30
2023-01-10T21:33:04.807Z,1.80
2023-01-10T21:35:32.560Z,3.67
2023-01-10T21:37:59.293Z,1.53
2023-01-10T21:40:27.197Z,2.03
2023-01-10T21:42:54.370Z,2.93
2023-01-10T21:45:21.947Z,2.37
2023-01-10T21:47:48.945Z,2.30
2023-01-10T21:50:16.823Z,1.60
2023-01-10T21:52:43.901Z,2.53
2023-01-10T21:55:13.715Z,2.30
2023-01-10T21:57:40.391Z,1.27
2023-01-10T22:00:08.033Z,2.10
